createdAt,value
2018-05-07T00:04:16.458Z,101414
2018-05-07T00:09:19.665Z,101410
2018-05-07T00:14:22.830Z,101414
2018-05-07T00:19:27.367Z,101406
2018-05-07T00:24:31.964Z,101409
2018-05-07T00:29:35.935Z,101403
2018-05-07T00:34:39.088Z,101397
2018-05-07T00:39:43.018Z,101407
2018-05-07T00:44:46.201Z,101403
2018-05-07T00:49:50.116Z,101396
2018-05-07T00:55:10.967Z,101395
2018-05-07T01:00:14.162Z,101391
2018-05-07T01:05:18.138Z,101395
2018-05-07T01:10:22.091Z,101397
2018-05-07T01:15:26.012Z,101396
2018-05-07T01:20:30.626Z,101394
2018-05-07T01:25:33.789Z,101397
2018-05-07T01:30:37.740Z,101399
2018-05-07T01:35:40.873Z,101400
2018-05-07T01:40:44.011Z,101404
2018-05-07T01:45:47.868Z,101403
2018-05-07T01:50:52.457Z,101413
2018-05-07T01:55:55.948Z,101405
2018-05-07T02:00:59.046Z,101404
2018-05-07T02:06:02.132Z,101396
2018-05-07T02:11:05.988Z,101398
2018-05-07T02:16:09.069Z,101393
2018-05-07T02:21:13.512Z,101394
2018-05-07T02:26:16.594Z,101392
2018-05-07T02:31:20.172Z,101381
2018-05-07T02:36:24.310Z,101378
2018-05-07T02:41:28.160Z,101383
2018-05-07T02:46:32.005Z,101379
2018-05-07T02:51:35.097Z,101386
2018-05-07T02:56:38.185Z,101385
2018-05-07T03:01:42.046Z,101385
2018-05-07T03:06:45.163Z,101384
2018-05-07T03:11:48.989Z,101389
2018-05-07T03:16:52.088Z,101380
2018-05-07T03:21:55.175Z,101383
2018-05-07T03:26:59.030Z,101377
2018-05-07T03:32:02.113Z,101368
2018-05-07T03:37:05.214Z,101364
2018-05-07T03:42:09.067Z,101362
2018-05-07T03:47:12.978Z,101359
2018-05-07T03:52:16.073Z,101358
2018-05-07T03:57:21.571Z,101366
2018-05-07T04:02:25.421Z,101356
2018-05-07T04:07:28.516Z,101358
2018-05-07T04:12:31.605Z,101351
2018-05-07T04:17:53.181Z,101352
2018-05-07T04:23:14.570Z,101355
2018-05-07T04:28:17.660Z,101356
2018-05-07T04:33:21.568Z,101345
2018-05-07T04:38:25.055Z,101352
2018-05-07T04:43:28.898Z,101358
2018-05-07T04:48:33.339Z,101358
2018-05-07T04:53:36.427Z,101355
2018-05-07T04:58:40.292Z,101358
2018-05-07T05:03:44.147Z,101357
2018-05-07T05:08:48.387Z,101356
2018-05-07T05:13:52.983Z,101356
2018-05-07T05:18:56.079Z,101362
2018-05-07T05:23:59.555Z,101359
2018-05-07T05:29:03.405Z,101366
2018-05-07T05:34:06.886Z,101364
2018-05-07T05:39:09.972Z,101364
2018-05-07T05:44:14.401Z,101357
2018-05-07T05:49:17.877Z,101361
2018-05-07T05:54:20.969Z,101361
2018-05-07T05:59:25.194Z,101368
2018-05-07T06:04:28.287Z,101364
2018-05-07T06:09:32.739Z,101371
2018-05-07T06:14:36.619Z,101372
2018-05-07T06:19:40.994Z,101368
2018-05-07T06:24:44.475Z,101372
2018-05-07T06:29:49.077Z,101370
2018-05-07T06:34:53.309Z,101370
2018-05-07T06:39:57.157Z,101362
2018-05-07T06:45:00.256Z,101360
2018-05-07T06:50:03.349Z,101359
2018-05-07T06:55:06.433Z,101363
2018-05-07T07:00:09.528Z,101357
2018-05-07T07:05:13.763Z,101362
2018-05-07T07:10:18.209Z,101360
2018-05-07T07:15:22.807Z,101352
2018-05-07T07:20:25.907Z,101355
2018-05-07T07:25:28.999Z,101357
2018-05-07T07:30:32.099Z,101350
2018-05-07T07:35:35.191Z,101356
2018-05-07T07:40:39.627Z,101353
2018-05-07T07:45:42.719Z,101352
2018-05-07T07:50:47.317Z,101346
2018-05-07T07:55:51.751Z,101338
2018-05-07T08:00:54.847Z,101347
2018-05-07T08:05:59.451Z,101351
2018-05-07T08:11:03.306Z,101345
2018-05-07T08:16:07.542Z,101337
2018-05-07T08:21:10.637Z,101334
2018-05-07T08:26:14.491Z,101333
2018-05-07T08:31:17.570Z,101330
2018-05-07T08:36:21.066Z,101327
2018-05-07T08:41:24.922Z,101335
2018-05-07T08:46:28.028Z,101336
2018-05-07T08:51:31.882Z,101330
2018-05-07T08:56:34.977Z,101347
2018-05-07T09:01:38.859Z,101336
2018-05-07T09:06:42.719Z,101324
2018-05-07T09:11:46.950Z,101323
2018-05-07T09:16:50.042Z,101322
2018-05-07T09:21:53.142Z,101322
2018-05-07T09:26:57.383Z,101315
2018-05-07T09:32:00.487Z,101300
2018-05-07T09:37:04.990Z,101289
2018-05-07T09:42:09.539Z,101274
2018-05-07T09:47:12.635Z,101267
2018-05-07T09:52:15.721Z,101254
2018-05-07T09:57:18.806Z,101255
2018-05-07T10:02:21.974Z,101243
2018-05-07T10:07:26.332Z,101233
2018-05-07T10:12:30.780Z,101228
2018-05-07T10:17:34.291Z,101224
2018-05-07T10:22:38.243Z,101220
2018-05-07T10:27:43.595Z,101214
2018-05-07T10:32:47.466Z,101210
2018-05-07T10:37:50.559Z,101208
2018-05-07T10:42:55.181Z,101203
2018-05-07T10:47:59.342Z,101194
2018-05-07T10:53:03.931Z,101194
2018-05-07T10:58:08.154Z,101181
2018-05-07T11:03:12.598Z,101176
2018-05-07T11:08:16.464Z,101169
2018-05-07T11:13:19.937Z,101161
2018-05-07T11:18:24.386Z,101158
2018-05-07T11:23:28.243Z,101157
2018-05-07T11:28:31.720Z,101142
2018-05-07T11:33:35.207Z,101134
2018-05-07T11:38:39.058Z,101126
2018-05-07T11:43:43.274Z,101128
2018-05-07T11:48:46.367Z,101135
2018-05-07T11:53:50.223Z,101111
2018-05-07T11:58:54.445Z,101124
2018-05-07T12:03:57.547Z,101120
2018-05-07T12:09:00.654Z,101104
2018-05-07T12:14:04.484Z,101100
2018-05-07T12:19:08.910Z,101089
2018-05-07T12:24:13.355Z,101087
2018-05-07T12:29:16.915Z,101084
2018-05-07T12:34:21.780Z,101075
2018-05-07T12:39:26.207Z,101079
2018-05-07T12:44:30.063Z,101068
2018-05-07T12:49:33.134Z,101074
2018-05-07T12:54:37.350Z,101056
2018-05-07T12:59:40.829Z,101045
2018-05-07T13:04:43.904Z,101045
2018-05-07T13:09:48.481Z,101035
2018-05-07T13:14:52.322Z,101023
2018-05-07T13:19:55.406Z,101021
2018-05-07T13:24:58.485Z,101012
2018-05-07T13:30:01.588Z,101007
2018-05-07T13:35:05.816Z,101002
2018-05-07T13:40:10.241Z,101024
2018-05-07T13:45:14.664Z,100997
2018-05-07T13:50:18.149Z,100989
2018-05-07T13:55:21.231Z,100981
2018-05-07T14:00:25.079Z,100974
2018-05-07T14:05:29.298Z,100978
2018-05-07T14:10:33.730Z,100960
2018-05-07T14:15:38.145Z,100956
2018-05-07T14:20:42.734Z,100944
2018-05-07T14:25:45.807Z,100939
2018-05-07T14:30:49.655Z,100935
2018-05-07T14:35:52.748Z,100927
2018-05-07T14:40:56.610Z,100923
2018-05-07T14:45:59.702Z,100914
2018-05-07T14:51:03.565Z,100914
2018-05-07T14:56:06.663Z,100905
2018-05-07T15:01:11.118Z,100908
2018-05-07T15:06:15.560Z,100917
2018-05-07T15:11:19.796Z,100911
2018-05-07T15:16:24.235Z,100904
2018-05-07T15:21:28.679Z,100892
2018-05-07T15:26:33.123Z,100885
2018-05-07T15:31:37.592Z,100886
2018-05-07T15:36:41.092Z,100879
2018-05-07T15:41:44.191Z,100879
2018-05-07T15:46:48.638Z,100872
2018-05-07T15:51:53.092Z,100872
2018-05-07T15:56:57.548Z,100867
2018-05-07T16:02:02.001Z,100862
2018-05-07T16:07:06.237Z,100859
2018-05-07T16:12:10.695Z,100848
2018-05-07T16:17:14.201Z,100845
2018-05-07T16:22:17.342Z,100848
2018-05-07T16:27:21.732Z,100844
2018-05-07T16:32:25.229Z,100838
2018-05-07T16:37:29.663Z,100831
2018-05-07T16:42:34.197Z,100826
2018-05-07T16:47:38.363Z,100827
2018-05-07T16:52:41.467Z,100823
2018-05-07T16:57:45.907Z,100823
2018-05-07T17:02:50.517Z,100818
2018-05-07T17:07:54.746Z,100815
2018-05-07T17:12:59.804Z,100816
2018-05-07T17:18:04.254Z,100811
2018-05-07T17:23:08.865Z,100813
2018-05-07T17:28:11.967Z,100812
2018-05-07T17:33:15.871Z,100806
2018-05-07T17:38:20.321Z,100812
2018-05-07T17:43:24.586Z,100809
2018-05-07T17:48:45.495Z,100809
2018-05-07T17:53:48.593Z,100802
2018-05-07T17:58:51.688Z,100805
2018-05-07T18:03:54.795Z,100800
2018-05-07T18:08:57.887Z,100795
2018-05-07T18:14:02.344Z,100801
2018-05-07T18:19:06.861Z,100800
2018-05-07T18:24:11.254Z,100802
2018-05-07T18:29:15.874Z,100805
2018-05-07T18:34:18.964Z,100797
2018-05-07T18:39:22.056Z,100804
2018-05-07T18:44:25.921Z,100802
2018-05-07T18:49:29.028Z,100811
2018-05-07T18:54:32.122Z,100808
2018-05-07T18:59:35.224Z,100810
2018-05-07T19:04:38.328Z,100814
2018-05-07T19:09:42.766Z,100822
2018-05-07T19:14:47.205Z,100825
2018-05-07T19:19:51.693Z,100828
2018-05-07T19:24:54.754Z,100836
2018-05-07T19:29:58.695Z,100834
2018-05-07T19:35:01.735Z,100836
2018-05-07T19:40:05.668Z,100840
2018-05-07T19:45:08.709Z,100840
2018-05-07T19:50:11.823Z,100837
2018-05-07T19:55:14.927Z,100843
2018-05-07T20:00:19.397Z,100847
2018-05-07T20:05:23.267Z,100845
2018-05-07T20:10:27.942Z,100841
2018-05-07T20:15:32.422Z,100849
2018-05-07T20:20:35.516Z,100844
2018-05-07T20:25:39.397Z,100844
2018-05-07T20:30:42.512Z,100849
2018-05-07T20:35:45.610Z,100853
2018-05-07T20:40:48.743Z,100851
2018-05-07T20:45:52.969Z,100849
2018-05-07T20:50:56.067Z,100844
2018-05-07T20:55:59.988Z,100846
2018-05-07T21:01:04.451Z,100845
2018-05-07T21:06:07.551Z,100846
2018-05-07T21:11:12.002Z,100843
2018-05-07T21:16:15.514Z,100848
2018-05-07T21:21:19.388Z,100844
2018-05-07T21:26:22.505Z,100856
2018-05-07T21:31:26.747Z,100853
2018-05-07T21:36:31.611Z,100852
2018-05-07T21:41:36.048Z,100856
2018-05-07T21:46:39.563Z,100851
2018-05-07T21:51:44.039Z,100852
2018-05-07T21:56:48.475Z,100849
2018-05-07T22:01:51.583Z,100855
2018-05-07T22:06:54.692Z,100856
2018-05-07T22:11:58.561Z,100856
2018-05-07T22:17:03.420Z,100857
2018-05-07T22:22:07.886Z,100858
2018-05-07T22:27:12.117Z,100850
2018-05-07T22:32:16.742Z,100848
2018-05-07T22:37:21.363Z,100847
2018-05-07T22:42:24.835Z,100839
2018-05-07T22:47:27.966Z,100840
2018-05-07T22:52:31.831Z,100838
2018-05-07T22:57:36.067Z,100837
2018-05-07T23:02:40.571Z,100837
2018-05-07T23:07:44.128Z,100839
2018-05-07T23:12:48.043Z,100835
2018-05-07T23:17:51.851Z,100838
2018-05-07T23:22:54.942Z,100834
2018-05-07T23:27:59.009Z,100831
2018-05-07T23:33:02.908Z,100835
2018-05-07T23:38:07.135Z,100835
2018-05-07T23:43:11.060Z,100834
2018-05-07T23:48:14.170Z,100820
2018-05-07T23:53:18.032Z,100816
2018-05-07T23:58:22.642Z,100812
